sensor_id;sensor_type;location;lat;lon;timestamp;P1;durP1;ratioP1;P2;durP2;ratioP2
74656;SDS011;63185;45.642;13.764;2022-11-15T00:00:47;16.42;;;9.70;;
74656;SDS011;63185;45.642;13.764;2022-11-15T00:03:25;15.07;;;9.15;;
74656;SDS011;63185;45.642;13.764;2022-11-15T00:08:18;14.93;;;9.52;;
74656;SDS011;63185;45.642;13.764;2022-11-15T00:10:53;17.65;;;10.02;;
74656;SDS011;63185;45.642;13.764;2022-11-15T00:13:23;15.75;;;9.73;;
74656;SDS011;63185;45.642;13.764;2022-11-15T00:15:49;14.85;;;9.77;;
74656;SDS011;63185;45.642;13.764;2022-11-15T00:18:15;15.00;;;9.15;;
74656;SDS011;63185;45.642;13.764;2022-11-15T00:20:41;15.00;;;10.10;;
74656;SDS011;63185;45.642;13.764;2022-11-15T00:23:07;15.50;;;9.75;;
74656;SDS011;63185;45.642;13.764;2022-11-15T00:25:33;15.40;;;9.60;;
74656;SDS011;63185;45.642;13.764;2022-11-15T00:28:00;18.17;;;10.13;;
74656;SDS011;63185;45.642;13.764;2022-11-15T00:30:27;17.30;;;10.25;;
74656;SDS011;63185;45.642;13.764;2022-11-15T00:32:53;16.40;;;9.70;;
74656;SDS011;63185;45.642;13.764;2022-11-15T00:35:18;18.02;;;10.50;;
74656;SDS011;63185;45.642;13.764;2022-11-15T00:37:44;14.75;;;9.43;;
74656;SDS011;63185;45.642;13.764;2022-11-15T00:40:12;16.50;;;10.25;;
74656;SDS011;63185;45.642;13.764;2022-11-15T00:42:38;15.82;;;9.68;;
74656;SDS011;63185;45.642;13.764;2022-11-15T00:45:04;16.20;;;10.55;;
74656;SDS011;63185;45.642;13.764;2022-11-15T00:47:30;16.95;;;9.85;;
74656;SDS011;63185;45.642;13.764;2022-11-15T00:49:55;15.73;;;10.00;;
74656;SDS011;63185;45.642;13.764;2022-11-15T00:52:21;16.05;;;10.00;;
74656;SDS011;63185;45.642;13.764;2022-11-15T00:54:47;15.63;;;9.77;;
74656;SDS011;63185;45.642;13.764;2022-11-15T00:57:12;15.63;;;9.85;;
74656;SDS011;63185;45.642;13.764;2022-11-15T00:59:38;16.05;;;9.65;;
74656;SDS011;63185;45.642;13.764;2022-11-15T01:02:04;15.70;;;9.75;;
74656;SDS011;63185;45.642;13.764;2022-11-15T01:04:29;16.95;;;10.68;;
74656;SDS011;63185;45.642;13.764;2022-11-15T01:06:55;15.77;;;9.75;;
74656;SDS011;63185;45.642;13.764;2022-11-15T01:09:21;17.70;;;10.30;;
74656;SDS011;63185;45.642;13.764;2022-11-15T01:11:46;16.33;;;10.48;;
74656;SDS011;63185;45.642;13.764;2022-11-15T01:14:12;16.40;;;10.63;;
74656;SDS011;63185;45.642;13.764;2022-11-15T01:16:38;16.55;;;10.65;;
74656;SDS011;63185;45.642;13.764;2022-11-15T01:19:04;16.55;;;10.02;;
74656;SDS011;63185;45.642;13.764;2022-11-15T01:21:30;15.63;;;9.75;;
74656;SDS011;63185;45.642;13.764;2022-11-15T01:23:56;12.88;;;9.10;;
74656;SDS011;63185;45.642;13.764;2022-11-15T01:26:23;16.25;;;9.88;;
74656;SDS011;63185;45.642;13.764;2022-11-15T01:28:49;17.13;;;10.35;;
74656;SDS011;63185;45.642;13.764;2022-11-15T01:31:16;14.30;;;9.32;;
74656;SDS011;63185;45.642;13.764;2022-11-15T01:33:44;17.15;;;10.65;;
74656;SDS011;63185;45.642;13.764;2022-11-15T01:36:12;16.55;;;9.60;;
74656;SDS011;63185;45.642;13.764;2022-11-15T01:38:40;17.83;;;10.25;;
74656;SDS011;63185;45.642;13.764;2022-11-15T01:41:05;15.93;;;9.75;;
74656;SDS011;63185;45.642;13.764;2022-11-15T01:43:32;16.50;;;10.07;;
74656;SDS011;63185;45.642;13.764;2022-11-15T01:46:08;15.98;;;9.85;;
74656;SDS011;63185;45.642;13.764;2022-11-15T01:48:47;15.25;;;9.40;;
74656;SDS011;63185;45.642;13.764;2022-11-15T01:51:16;18.67;;;10.07;;
74656;SDS011;63185;45.642;13.764;2022-11-15T01:53:45;14.10;;;9.40;;
74656;SDS011;63185;45.642;13.764;2022-11-15T01:58:41;14.95;;;9.07;;
74656;SDS011;63185;45.642;13.764;2022-11-15T02:01:09;16.33;;;9.65;;
74656;SDS011;63185;45.642;13.764;2022-11-15T02:03:45;14.02;;;9.70;;
74656;SDS011;63185;45.642;13.764;2022-11-15T02:06:15;13.93;;;9.20;;
74656;SDS011;63185;45.642;13.764;2022-11-15T02:08:41;17.33;;;10.55;;
74656;SDS011;63185;45.642;13.764;2022-11-15T02:11:08;14.88;;;8.98;;
74656;SDS011;63185;45.642;13.764;2022-11-15T02:13:33;19.50;;;10.25;;
74656;SDS011;63185;45.642;13.764;2022-11-15T02:18:32;16.33;;;10.63;;
74656;SDS011;63185;45.642;13.764;2022-11-15T02:21:03;15.57;;;10.10;;
74656;SDS011;63185;45.642;13.764;2022-11-15T02:32:40;15.45;;;9.65;;
74656;SDS011;63185;45.642;13.764;2022-11-15T02:35:21;16.10;;;9.85;;
74656;SDS011;63185;45.642;13.764;2022-11-15T02:37:59;14.85;;;9.63;;
74656;SDS011;63185;45.642;13.764;2022-11-15T02:40:45;14.07;;;8.98;;
74656;SDS011;63185;45.642;13.764;2022-11-15T02:43:15;13.70;;;9.20;;
74656;SDS011;63185;45.642;13.764;2022-11-15T02:46:11;12.52;;;8.70;;
74656;SDS011;63185;45.642;13.764;2022-11-15T02:48:44;15.52;;;9.80;;
74656;SDS011;63185;45.642;13.764;2022-11-15T02:51:11;14.93;;;9.55;;
74656;SDS011;63185;45.642;13.764;2022-11-15T02:53:38;14.55;;;9.27;;
74656;SDS011;63185;45.642;13.764;2022-11-15T02:56:04;14.20;;;8.88;;
74656;SDS011;63185;45.642;13.764;2022-11-15T03:06:56;14.30;;;8.98;;
74656;SDS011;63185;45.642;13.764;2022-11-15T03:12:12;14.57;;;9.52;;
74656;SDS011;63185;45.642;13.764;2022-11-15T03:14:56;14.77;;;9.40;;
74656;SDS011;63185;45.642;13.764;2022-11-15T03:18:01;14.32;;;8.70;;
74656;SDS011;63185;45.642;13.764;2022-11-15T03:20:31;13.05;;;9.05;;
74656;SDS011;63185;45.642;13.764;2022-11-15T03:23:09;13.68;;;8.88;;
74656;SDS011;63185;45.642;13.764;2022-11-15T03:25:36;13.65;;;8.90;;
74656;SDS011;63185;45.642;13.764;2022-11-15T03:28:06;13.20;;;8.35;;
74656;SDS011;63185;45.642;13.764;2022-11-15T03:33:02;13.98;;;8.82;;
74656;SDS011;63185;45.642;13.764;2022-11-15T03:35:30;14.00;;;9.27;;
74656;SDS011;63185;45.642;13.764;2022-11-15T03:38:17;15.02;;;8.75;;
74656;SDS011;63185;45.642;13.764;2022-11-15T03:40:58;15.70;;;8.88;;
74656;SDS011;63185;45.642;13.764;2022-11-15T03:48:24;14.13;;;8.73;;
74656;SDS011;63185;45.642;13.764;2022-11-15T03:50:55;13.98;;;9.07;;
74656;SDS011;63185;45.642;13.764;2022-11-15T03:53:21;13.02;;;8.82;;
74656;SDS011;63185;45.642;13.764;2022-11-15T03:55:46;13.32;;;8.15;;
74656;SDS011;63185;45.642;13.764;2022-11-15T03:58:12;13.88;;;8.77;;
74656;SDS011;63185;45.642;13.764;2022-11-15T04:00:38;12.30;;;8.23;;
74656;SDS011;63185;45.642;13.764;2022-11-15T04:03:04;13.82;;;8.68;;
74656;SDS011;63185;45.642;13.764;2022-11-15T04:05:29;13.25;;;9.07;;
74656;SDS011;63185;45.642;13.764;2022-11-15T04:07:55;13.52;;;8.35;;
74656;SDS011;63185;45.642;13.764;2022-11-15T04:10:21;13.23;;;8.45;;
74656;SDS011;63185;45.642;13.764;2022-11-15T04:12:46;13.77;;;8.52;;
74656;SDS011;63185;45.642;13.764;2022-11-15T04:15:20;13.55;;;8.77;;
74656;SDS011;63185;45.642;13.764;2022-11-15T04:17:48;14.60;;;8.45;;
74656;SDS011;63185;45.642;13.764;2022-11-15T04:20:25;13.98;;;8.80;;
74656;SDS011;63185;45.642;13.764;2022-11-15T04:25:58;16.40;;;9.98;;
74656;SDS011;63185;45.642;13.764;2022-11-15T04:28:29;15.43;;;9.07;;
74656;SDS011;63185;45.642;13.764;2022-11-15T04:30:55;15.10;;;8.18;;
74656;SDS011;63185;45.642;13.764;2022-11-15T04:33:21;12.75;;;8.02;;
74656;SDS011;63185;45.642;13.764;2022-11-15T04:35:47;14.60;;;8.63;;
74656;SDS011;63185;45.642;13.764;2022-11-15T04:38:33;14.73;;;8.50;;
74656;SDS011;63185;45.642;13.764;2022-11-15T04:40:59;13.55;;;8.68;;
74656;SDS011;63185;45.642;13.764;2022-11-15T04:43:25;13.70;;;8.80;;
74656;SDS011;63185;45.642;13.764;2022-11-15T04:45:51;13.48;;;8.68;;
74656;SDS011;63185;45.642;13.764;2022-11-15T04:48:16;11.65;;;8.10;;
74656;SDS011;63185;45.642;13.764;2022-11-15T04:50:42;14.68;;;8.52;;
74656;SDS011;63185;45.642;13.764;2022-11-15T04:53:08;12.57;;;8.32;;
74656;SDS011;63185;45.642;13.764;2022-11-15T04:55:33;12.48;;;8.27;;
74656;SDS011;63185;45.642;13.764;2022-11-15T04:57:59;11.40;;;7.75;;
74656;SDS011;63185;45.642;13.764;2022-11-15T05:00:26;12.35;;;8.05;;
74656;SDS011;63185;45.642;13.764;2022-11-15T05:02:53;11.95;;;7.93;;
74656;SDS011;63185;45.642;13.764;2022-11-15T05:05:38;12.43;;;8.15;;
74656;SDS011;63185;45.642;13.764;2022-11-15T05:08:03;14.32;;;7.80;;
74656;SDS011;63185;45.642;13.764;2022-11-15T05:10:29;11.00;;;7.90;;
74656;SDS011;63185;45.642;13.764;2022-11-15T05:12:55;13.30;;;8.68;;
74656;SDS011;63185;45.642;13.764;2022-11-15T05:15:20;12.38;;;8.00;;
74656;SDS011;63185;45.642;13.764;2022-11-15T05:17:46;11.73;;;7.85;;
74656;SDS011;63185;45.642;13.764;2022-11-15T05:20:12;12.73;;;7.97;;
74656;SDS011;63185;45.642;13.764;2022-11-15T05:22:38;12.23;;;8.05;;
74656;SDS011;63185;45.642;13.764;2022-11-15T05:25:04;13.10;;;8.93;;
74656;SDS011;63185;45.642;13.764;2022-11-15T05:27:30;12.85;;;8.35;;
74656;SDS011;63185;45.642;13.764;2022-11-15T05:29:56;12.73;;;8.55;;
74656;SDS011;63185;45.642;13.764;2022-11-15T05:32:22;13.52;;;8.23;;
74656;SDS011;63185;45.642;13.764;2022-11-15T05:34:48;11.75;;;8.05;;
74656;SDS011;63185;45.642;13.764;2022-11-15T05:37:14;14.30;;;8.75;;
74656;SDS011;63185;45.642;13.764;2022-11-15T05:39:41;13.25;;;8.52;;
74656;SDS011;63185;45.642;13.764;2022-11-15T05:42:10;13.90;;;9.02;;
74656;SDS011;63185;45.642;13.764;2022-11-15T05:44:41;11.82;;;8.38;;
74656;SDS011;63185;45.642;13.764;2022-11-15T05:47:11;13.10;;;8.35;;
74656;SDS011;63185;45.642;13.764;2022-11-15T05:49:42;13.10;;;8.88;;
74656;SDS011;63185;45.642;13.764;2022-11-15T05:52:09;13.52;;;8.80;;
74656;SDS011;63185;45.642;13.764;2022-11-15T05:54:38;13.13;;;8.70;;
74656;SDS011;63185;45.642;13.764;2022-11-15T05:57:04;12.45;;;8.35;;
74656;SDS011;63185;45.642;13.764;2022-11-15T05:59:30;14.13;;;8.85;;
74656;SDS011;63185;45.642;13.764;2022-11-15T06:01:57;11.93;;;8.20;;
74656;SDS011;63185;45.642;13.764;2022-11-15T06:04:22;12.52;;;8.52;;
74656;SDS011;63185;45.642;13.764;2022-11-15T06:06:48;13.95;;;8.63;;
74656;SDS011;63185;45.642;13.764;2022-11-15T06:09:14;15.30;;;9.63;;
74656;SDS011;63185;45.642;13.764;2022-11-15T06:11:40;14.35;;;9.18;;
74656;SDS011;63185;45.642;13.764;2022-11-15T06:14:05;15.00;;;9.73;;
74656;SDS011;63185;45.642;13.764;2022-11-15T06:16:31;15.20;;;9.25;;
74656;SDS011;63185;45.642;13.764;2022-11-15T06:18:57;18.35;;;10.02;;
74656;SDS011;63185;45.642;13.764;2022-11-15T06:21:22;13.32;;;9.65;;
74656;SDS011;63185;45.642;13.764;2022-11-15T06:23:48;14.85;;;9.63;;
74656;SDS011;63185;45.642;13.764;2022-11-15T06:26:14;17.25;;;10.27;;
74656;SDS011;63185;45.642;13.764;2022-11-15T06:28:39;15.00;;;9.68;;
74656;SDS011;63185;45.642;13.764;2022-11-15T06:31:06;13.90;;;9.45;;
74656;SDS011;63185;45.642;13.764;2022-11-15T06:33:34;13.77;;;9.50;;
74656;SDS011;63185;45.642;13.764;2022-11-15T06:36:01;15.30;;;9.68;;
74656;SDS011;63185;45.642;13.764;2022-11-15T06:38:30;11.52;;;8.40;;
74656;SDS011;63185;45.642;13.764;2022-11-15T06:41:04;16.80;;;9.63;;
74656;SDS011;63185;45.642;13.764;2022-11-15T06:43:31;15.43;;;10.20;;
74656;SDS011;63185;45.642;13.764;2022-11-15T06:45:57;13.75;;;9.13;;
74656;SDS011;63185;45.642;13.764;2022-11-15T06:48:24;14.02;;;8.95;;
74656;SDS011;63185;45.642;13.764;2022-11-15T06:50:51;15.95;;;9.70;;
74656;SDS011;63185;45.642;13.764;2022-11-15T06:53:22;14.10;;;9.35;;
74656;SDS011;63185;45.642;13.764;2022-11-15T06:55:48;13.70;;;8.70;;
74656;SDS011;63185;45.642;13.764;2022-11-15T06:58:14;15.93;;;9.88;;
74656;SDS011;63185;45.642;13.764;2022-11-15T07:00:40;16.10;;;9.82;;
74656;SDS011;63185;45.642;13.764;2022-11-15T07:03:06;14.55;;;10.18;;
74656;SDS011;63185;45.642;13.764;2022-11-15T07:05:32;15.93;;;9.15;;
74656;SDS011;63185;45.642;13.764;2022-11-15T07:07:58;17.40;;;9.90;;
74656;SDS011;63185;45.642;13.764;2022-11-15T07:10:25;14.32;;;9.05;;
74656;SDS011;63185;45.642;13.764;2022-11-15T07:12:52;16.60;;;9.25;;
74656;SDS011;63185;45.642;13.764;2022-11-15T07:15:19;15.57;;;9.57;;
74656;SDS011;63185;45.642;13.764;2022-11-15T07:17:46;15.38;;;9.57;;
74656;SDS011;63185;45.642;13.764;2022-11-15T07:20:12;16.65;;;9.60;;
74656;SDS011;63185;45.642;13.764;2022-11-15T07:22:39;16.23;;;9.18;;
74656;SDS011;63185;45.642;13.764;2022-11-15T07:25:05;14.48;;;8.77;;
74656;SDS011;63185;45.642;13.764;2022-11-15T07:27:31;14.57;;;9.40;;
74656;SDS011;63185;45.642;13.764;2022-11-15T07:29:57;13.65;;;9.45;;
74656;SDS011;63185;45.642;13.764;2022-11-15T07:32:23;13.88;;;9.30;;
74656;SDS011;63185;45.642;13.764;2022-11-15T07:34:48;17.75;;;9.13;;
74656;SDS011;63185;45.642;13.764;2022-11-15T07:37:14;16.42;;;9.52;;
74656;SDS011;63185;45.642;13.764;2022-11-15T07:39:41;15.18;;;9.48;;
74656;SDS011;63185;45.642;13.764;2022-11-15T07:42:07;19.13;;;10.02;;
74656;SDS011;63185;45.642;13.764;2022-11-15T07:44:51;17.23;;;9.50;;
74656;SDS011;63185;45.642;13.764;2022-11-15T07:47:17;18.70;;;9.07;;
74656;SDS011;63185;45.642;13.764;2022-11-15T07:49:43;17.02;;;10.05;;
74656;SDS011;63185;45.642;13.764;2022-11-15T07:52:08;12.45;;;8.90;;
74656;SDS011;63185;45.642;13.764;2022-11-15T07:54:34;19.83;;;10.40;;
74656;SDS011;63185;45.642;13.764;2022-11-15T07:57:00;15.07;;;9.63;;
74656;SDS011;63185;45.642;13.764;2022-11-15T07:59:25;13.82;;;9.55;;
74656;SDS011;63185;45.642;13.764;2022-11-15T08:01:51;17.23;;;9.50;;
74656;SDS011;63185;45.642;13.764;2022-11-15T08:04:19;15.40;;;9.40;;
74656;SDS011;63185;45.642;13.764;2022-11-15T08:06:45;15.95;;;9.60;;
74656;SDS011;63185;45.642;13.764;2022-11-15T08:09:11;17.83;;;9.73;;
74656;SDS011;63185;45.642;13.764;2022-11-15T08:11:37;19.08;;;10.13;;
74656;SDS011;63185;45.642;13.764;2022-11-15T08:14:02;14.20;;;9.57;;
74656;SDS011;63185;45.642;13.764;2022-11-15T08:16:28;18.30;;;10.27;;
74656;SDS011;63185;45.642;13.764;2022-11-15T08:18:54;18.38;;;10.88;;
74656;SDS011;63185;45.642;13.764;2022-11-15T08:21:20;15.50;;;9.80;;
74656;SDS011;63185;45.642;13.764;2022-11-15T08:23:46;17.83;;;10.23;;
74656;SDS011;63185;45.642;13.764;2022-11-15T08:26:12;15.85;;;10.35;;
74656;SDS011;63185;45.642;13.764;2022-11-15T08:28:38;19.55;;;11.13;;
74656;SDS011;63185;45.642;13.764;2022-11-15T08:31:04;17.50;;;11.48;;
74656;SDS011;63185;45.642;13.764;2022-11-15T08:33:30;19.15;;;10.50;;
74656;SDS011;63185;45.642;13.764;2022-11-15T08:35:58;20.05;;;11.70;;
74656;SDS011;63185;45.642;13.764;2022-11-15T08:38:25;16.42;;;10.82;;
74656;SDS011;63185;45.642;13.764;2022-11-15T08:40:51;19.77;;;11.23;;
74656;SDS011;63185;45.642;13.764;2022-11-15T08:43:18;16.02;;;10.65;;
74656;SDS011;63185;45.642;13.764;2022-11-15T08:45:44;19.23;;;11.05;;
74656;SDS011;63185;45.642;13.764;2022-11-15T08:48:10;16.92;;;11.07;;
74656;SDS011;63185;45.642;13.764;2022-11-15T08:50:36;17.30;;;10.93;;
74656;SDS011;63185;45.642;13.764;2022-11-15T08:53:09;17.17;;;10.50;;
74656;SDS011;63185;45.642;13.764;2022-11-15T08:55:36;16.08;;;10.20;;
74656;SDS011;63185;45.642;13.764;2022-11-15T08:58:03;18.25;;;10.45;;
74656;SDS011;63185;45.642;13.764;2022-11-15T09:00:29;14.68;;;10.00;;
74656;SDS011;63185;45.642;13.764;2022-11-15T09:02:55;17.85;;;10.25;;
74656;SDS011;63185;45.642;13.764;2022-11-15T09:05:20;14.50;;;9.85;;
74656;SDS011;63185;45.642;13.764;2022-11-15T09:07:46;16.15;;;9.85;;
74656;SDS011;63185;45.642;13.764;2022-11-15T09:10:12;17.92;;;10.80;;
74656;SDS011;63185;45.642;13.764;2022-11-15T09:12:38;20.58;;;10.25;;
74656;SDS011;63185;45.642;13.764;2022-11-15T09:15:04;17.10;;;10.38;;
74656;SDS011;63185;45.642;13.764;2022-11-15T09:17:31;19.42;;;10.70;;
74656;SDS011;63185;45.642;13.764;2022-11-15T09:19:56;19.40;;;10.85;;
74656;SDS011;63185;45.642;13.764;2022-11-15T09:22:22;17.23;;;11.13;;
74656;SDS011;63185;45.642;13.764;2022-11-15T09:24:48;19.17;;;11.23;;
74656;SDS011;63185;45.642;13.764;2022-11-15T09:27:14;17.95;;;11.10;;
74656;SDS011;63185;45.642;13.764;2022-11-15T09:29:39;18.30;;;10.30;;
74656;SDS011;63185;45.642;13.764;2022-11-15T09:32:05;17.48;;;10.25;;
74656;SDS011;63185;45.642;13.764;2022-11-15T09:34:31;17.55;;;10.32;;
74656;SDS011;63185;45.642;13.764;2022-11-15T09:36:57;16.75;;;10.70;;
74656;SDS011;63185;45.642;13.764;2022-11-15T09:39:23;17.75;;;10.00;;
74656;SDS011;63185;45.642;13.764;2022-11-15T09:49:53;15.73;;;10.35;;
74656;SDS011;63185;45.642;13.764;2022-11-15T09:52:23;15.77;;;10.38;;
74656;SDS011;63185;45.642;13.764;2022-11-15T09:54:50;16.63;;;9.98;;
74656;SDS011;63185;45.642;13.764;2022-11-15T10:00:19;14.80;;;8.73;;
74656;SDS011;63185;45.642;13.764;2022-11-15T10:03:00;17.95;;;9.82;;
74656;SDS011;63185;45.642;13.764;2022-11-15T10:05:48;17.05;;;10.32;;
74656;SDS011;63185;45.642;13.764;2022-11-15T10:11:20;22.15;;;10.40;;
74656;SDS011;63185;45.642;13.764;2022-11-15T10:13:49;15.55;;;9.50;;
74656;SDS011;63185;45.642;13.764;2022-11-15T10:24:34;16.95;;;9.88;;
74656;SDS011;63185;45.642;13.764;2022-11-15T10:27:07;15.32;;;9.10;;
74656;SDS011;63185;45.642;13.764;2022-11-15T10:29:47;23.23;;;10.35;;
74656;SDS011;63185;45.642;13.764;2022-11-15T10:32:16;16.88;;;9.65;;
74656;SDS011;63185;45.642;13.764;2022-11-15T10:34:43;14.55;;;10.05;;
74656;SDS011;63185;45.642;13.764;2022-11-15T10:37:09;16.20;;;10.07;;
74656;SDS011;63185;45.642;13.764;2022-11-15T10:39:35;15.95;;;9.65;;
74656;SDS011;63185;45.642;13.764;2022-11-15T10:44:52;12.02;;;8.23;;
74656;SDS011;63185;45.642;13.764;2022-11-15T10:47:27;15.02;;;8.95;;
74656;SDS011;63185;45.642;13.764;2022-11-15T10:50:01;16.17;;;8.80;;
74656;SDS011;63185;45.642;13.764;2022-11-15T10:52:31;15.07;;;9.05;;
74656;SDS011;63185;45.642;13.764;2022-11-15T10:55:04;14.90;;;8.57;;
74656;SDS011;63185;45.642;13.764;2022-11-15T10:57:35;16.48;;;8.93;;
74656;SDS011;63185;45.642;13.764;2022-11-15T11:00:05;17.42;;;8.40;;
74656;SDS011;63185;45.642;13.764;2022-11-15T11:05:37;11.15;;;7.25;;
74656;SDS011;63185;45.642;13.764;2022-11-15T11:10:36;11.02;;;7.75;;
74656;SDS011;63185;45.642;13.764;2022-11-15T11:13:15;11.57;;;7.45;;
74656;SDS011;63185;45.642;13.764;2022-11-15T11:15:50;11.35;;;7.43;;
74656;SDS011;63185;45.642;13.764;2022-11-15T11:18:27;11.75;;;7.35;;
74656;SDS011;63185;45.642;13.764;2022-11-15T11:21:04;9.30;;;7.53;;
74656;SDS011;63185;45.642;13.764;2022-11-15T11:23:44;10.88;;;8.23;;
74656;SDS011;63185;45.642;13.764;2022-11-15T11:26:26;14.15;;;8.43;;
74656;SDS011;63185;45.642;13.764;2022-11-15T11:34:37;11.27;;;8.10;;
74656;SDS011;63185;45.642;13.764;2022-11-15T11:37:19;10.30;;;7.63;;
74656;SDS011;63185;45.642;13.764;2022-11-15T11:43:07;12.98;;;7.65;;
74656;SDS011;63185;45.642;13.764;2022-11-15T11:45:59;10.55;;;7.40;;
74656;SDS011;63185;45.642;13.764;2022-11-15T11:48:42;13.15;;;8.32;;
74656;SDS011;63185;45.642;13.764;2022-11-15T11:51:27;12.32;;;7.82;;
74656;SDS011;63185;45.642;13.764;2022-11-15T11:54:18;12.15;;;8.23;;
74656;SDS011;63185;45.642;13.764;2022-11-15T11:56:49;12.45;;;8.00;;
74656;SDS011;63185;45.642;13.764;2022-11-15T12:02:09;14.20;;;8.30;;
74656;SDS011;63185;45.642;13.764;2022-11-15T12:04:44;14.73;;;8.45;;
74656;SDS011;63185;45.642;13.764;2022-11-15T12:07:17;13.98;;;7.90;;
74656;SDS011;63185;45.642;13.764;2022-11-15T12:09:47;10.10;;;7.43;;
74656;SDS011;63185;45.642;13.764;2022-11-15T12:18:36;13.13;;;7.90;;
74656;SDS011;63185;45.642;13.764;2022-11-15T12:24:29;11.35;;;8.27;;
74656;SDS011;63185;45.642;13.764;2022-11-15T12:30:11;13.05;;;8.10;;
74656;SDS011;63185;45.642;13.764;2022-11-15T12:32:55;13.70;;;8.18;;
74656;SDS011;63185;45.642;13.764;2022-11-15T12:37:57;17.17;;;9.13;;
74656;SDS011;63185;45.642;13.764;2022-11-15T12:40:30;13.13;;;8.43;;
74656;SDS011;63185;45.642;13.764;2022-11-15T12:45:43;13.52;;;8.57;;
74656;SDS011;63185;45.642;13.764;2022-11-15T12:51:15;16.58;;;9.32;;
74656;SDS011;63185;45.642;13.764;2022-11-15T12:53:34;16.98;;;9.55;;
74656;SDS011;63185;45.642;13.764;2022-11-15T13:07:02;17.88;;;11.50;;
74656;SDS011;63185;45.642;13.764;2022-11-15T13:12:07;19.35;;;12.43;;
74656;SDS011;63185;45.642;13.764;2022-11-15T13:28:38;24.70;;;15.55;;
74656;SDS011;63185;45.642;13.764;2022-11-15T13:31:23;22.13;;;14.35;;
74656;SDS011;63185;45.642;13.764;2022-11-15T13:33:56;19.85;;;12.85;;
74656;SDS011;63185;45.642;13.764;2022-11-15T13:36:26;19.25;;;12.93;;
74656;SDS011;63185;45.642;13.764;2022-11-15T13:41:23;16.70;;;11.63;;
74656;SDS011;63185;45.642;13.764;2022-11-15T13:43:51;16.52;;;11.35;;
74656;SDS011;63185;45.642;13.764;2022-11-15T13:46:20;16.70;;;11.02;;
74656;SDS011;63185;45.642;13.764;2022-11-15T13:48:46;16.00;;;10.25;;
74656;SDS011;63185;45.642;13.764;2022-11-15T13:54:00;18.02;;;12.38;;
74656;SDS011;63185;45.642;13.764;2022-11-15T13:56:32;24.45;;;13.20;;
74656;SDS011;63185;45.642;13.764;2022-11-15T13:58:59;18.90;;;12.07;;
74656;SDS011;63185;45.642;13.764;2022-11-15T14:01:27;18.98;;;12.98;;
74656;SDS011;63185;45.642;13.764;2022-11-15T14:03:57;23.15;;;13.77;;
74656;SDS011;63185;45.642;13.764;2022-11-15T14:06:25;20.35;;;13.55;;
74656;SDS011;63185;45.642;13.764;2022-11-15T14:11:25;21.67;;;14.65;;
74656;SDS011;63185;45.642;13.764;2022-11-15T14:16:38;21.52;;;13.88;;
74656;SDS011;63185;45.642;13.764;2022-11-15T14:19:08;21.88;;;14.23;;
74656;SDS011;63185;45.642;13.764;2022-11-15T14:22:15;21.83;;;14.18;;
74656;SDS011;63185;45.642;13.764;2022-11-15T14:24:44;21.98;;;13.95;;
74656;SDS011;63185;45.642;13.764;2022-11-15T14:27:27;27.52;;;15.10;;
74656;SDS011;63185;45.642;13.764;2022-11-15T14:29:54;23.00;;;15.15;;
74656;SDS011;63185;45.642;13.764;2022-11-15T14:33:11;23.05;;;15.18;;
74656;SDS011;63185;45.642;13.764;2022-11-15T14:35:22;23.67;;;16.00;;
74656;SDS011;63185;45.642;13.764;2022-11-15T14:37:48;23.77;;;15.95;;
74656;SDS011;63185;45.642;13.764;2022-11-15T14:40:16;30.90;;;16.63;;
74656;SDS011;63185;45.642;13.764;2022-11-15T14:42:44;18.17;;;12.10;;
74656;SDS011;63185;45.642;13.764;2022-11-15T14:45:17;27.13;;;17.13;;
74656;SDS011;63185;45.642;13.764;2022-11-15T14:47:45;27.88;;;17.95;;
74656;SDS011;63185;45.642;13.764;2022-11-15T14:50:20;26.10;;;17.20;;
74656;SDS011;63185;45.642;13.764;2022-11-15T14:52:47;30.65;;;18.20;;
74656;SDS011;63185;45.642;13.764;2022-11-15T14:57:42;29.90;;;18.27;;
74656;SDS011;63185;45.642;13.764;2022-11-15T15:00:08;29.35;;;17.85;;
74656;SDS011;63185;45.642;13.764;2022-11-15T15:02:36;29.55;;;18.50;;
74656;SDS011;63185;45.642;13.764;2022-11-15T15:05:11;29.85;;;18.77;;
74656;SDS011;63185;45.642;13.764;2022-11-15T15:07:54;31.17;;;18.60;;
74656;SDS011;63185;45.642;13.764;2022-11-15T15:10:21;28.17;;;17.17;;
74656;SDS011;63185;45.642;13.764;2022-11-15T15:12:47;29.58;;;18.38;;
74656;SDS011;63185;45.642;13.764;2022-11-15T15:15:14;29.80;;;18.77;;
74656;SDS011;63185;45.642;13.764;2022-11-15T15:17:51;28.20;;;18.70;;
74656;SDS011;63185;45.642;13.764;2022-11-15T15:20:17;28.63;;;19.20;;
74656;SDS011;63185;45.642;13.764;2022-11-15T15:22:43;31.90;;;19.52;;
74656;SDS011;63185;45.642;13.764;2022-11-15T15:25:20;33.40;;;19.80;;
74656;SDS011;63185;45.642;13.764;2022-11-15T15:27:52;30.23;;;18.77;;
74656;SDS011;63185;45.642;13.764;2022-11-15T15:30:19;30.00;;;19.45;;
74656;SDS011;63185;45.642;13.764;2022-11-15T15:32:45;31.02;;;19.85;;
74656;SDS011;63185;45.642;13.764;2022-11-15T15:35:11;28.33;;;18.33;;
74656;SDS011;63185;45.642;13.764;2022-11-15T15:37:38;29.13;;;18.77;;
74656;SDS011;63185;45.642;13.764;2022-11-15T15:40:08;30.42;;;19.15;;
74656;SDS011;63185;45.642;13.764;2022-11-15T15:42:38;28.63;;;19.05;;
74656;SDS011;63185;45.642;13.764;2022-11-15T15:45:04;29.55;;;19.30;;
74656;SDS011;63185;45.642;13.764;2022-11-15T15:47:30;30.10;;;18.25;;
74656;SDS011;63185;45.642;13.764;2022-11-15T15:49:56;31.65;;;18.98;;
74656;SDS011;63185;45.642;13.764;2022-11-15T15:52:22;28.55;;;19.10;;
74656;SDS011;63185;45.642;13.764;2022-11-15T15:54:48;30.75;;;19.48;;
74656;SDS011;63185;45.642;13.764;2022-11-15T15:57:14;31.65;;;19.65;;
74656;SDS011;63185;45.642;13.764;2022-11-15T15:59:40;27.13;;;18.25;;
74656;SDS011;63185;45.642;13.764;2022-11-15T16:02:08;28.23;;;17.77;;
74656;SDS011;63185;45.642;13.764;2022-11-15T16:04:37;31.60;;;19.80;;
74656;SDS011;63185;45.642;13.764;2022-11-15T16:07:03;31.95;;;20.65;;
74656;SDS011;63185;45.642;13.764;2022-11-15T16:09:29;28.27;;;18.85;;
74656;SDS011;63185;45.642;13.764;2022-11-15T16:12:14;28.10;;;18.73;;
74656;SDS011;63185;45.642;13.764;2022-11-15T16:14:41;30.23;;;18.90;;
74656;SDS011;63185;45.642;13.764;2022-11-15T16:17:09;31.35;;;19.83;;
74656;SDS011;63185;45.642;13.764;2022-11-15T16:19:41;29.70;;;19.00;;
74656;SDS011;63185;45.642;13.764;2022-11-15T16:22:07;29.92;;;20.20;;
74656;SDS011;63185;45.642;13.764;2022-11-15T16:24:33;34.05;;;21.33;;
74656;SDS011;63185;45.642;13.764;2022-11-15T16:26:59;34.33;;;20.77;;
74656;SDS011;63185;45.642;13.764;2022-11-15T16:29:24;32.42;;;20.88;;
74656;SDS011;63185;45.642;13.764;2022-11-15T16:31:50;34.00;;;21.10;;
74656;SDS011;63185;45.642;13.764;2022-11-15T16:34:16;35.45;;;21.55;;
74656;SDS011;63185;45.642;13.764;2022-11-15T16:36:42;34.42;;;22.50;;
74656;SDS011;63185;45.642;13.764;2022-11-15T16:39:11;34.50;;;21.95;;
74656;SDS011;63185;45.642;13.764;2022-11-15T16:41:43;30.35;;;20.52;;
74656;SDS011;63185;45.642;13.764;2022-11-15T16:44:12;36.10;;;21.65;;
74656;SDS011;63185;45.642;13.764;2022-11-15T16:46:40;32.58;;;20.58;;
74656;SDS011;63185;45.642;13.764;2022-11-15T16:49:13;31.75;;;20.67;;